sensor_id;sensor_type;location;lat;lon;timestamp;P1;durP1;ratioP1;P2;durP2;ratioP2
10725;SDS011;5414;59.782;16.378;2024-03-02T00:01:40;112.33;;;21.13;;
10725;SDS011;5414;59.782;16.378;2024-03-02T00:04:07;55.10;;;17.03;;
10725;SDS011;5414;59.782;16.378;2024-03-02T00:06:33;37.03;;;16.37;;
10725;SDS011;5414;59.782;16.378;2024-03-02T00:09:00;25.03;;;16.07;;
10725;SDS011;5414;59.782;16.378;2024-03-02T00:11:26;78.13;;;19.60;;
10725;SDS011;5414;59.782;16.378;2024-03-02T00:13:52;95.63;;;19.97;;
10725;SDS011;5414;59.782;16.378;2024-03-02T00:16:21;174.93;;;22.50;;
10725;SDS011;5414;59.782;16.378;2024-03-02T00:18:49;213.47;;;25.57;;
10725;SDS011;5414;59.782;16.378;2024-03-02T00:21:15;179.83;;;24.40;;
10725;SDS011;5414;59.782;16.378;2024-03-02T00:23:45;160.50;;;24.13;;
10725;SDS011;5414;59.782;16.378;2024-03-02T00:26:11;73.43;;;20.20;;
10725;SDS011;5414;59.782;16.378;2024-03-02T00:28:37;75.67;;;20.23;;
10725;SDS011;5414;59.782;16.378;2024-03-02T00:31:09;87.90;;;21.77;;
10725;SDS011;5414;59.782;16.378;2024-03-02T00:33:45;152.03;;;23.73;;
10725;SDS011;5414;59.782;16.378;2024-03-02T00:36:32;58.07;;;20.97;;
10725;SDS011;5414;59.782;16.378;2024-03-02T00:38:57;99.87;;;22.13;;
10725;SDS011;5414;59.782;16.378;2024-03-02T00:41:24;143.83;;;24.60;;
10725;SDS011;5414;59.782;16.378;2024-03-02T00:46:19;158.57;;;26.63;;
10725;SDS011;5414;59.782;16.378;2024-03-02T00:48:55;165.43;;;26.33;;
10725;SDS011;5414;59.782;16.378;2024-03-02T00:51:23;212.87;;;29.17;;
10725;SDS011;5414;59.782;16.378;2024-03-02T00:53:49;307.20;;;32.27;;
10725;SDS011;5414;59.782;16.378;2024-03-02T00:56:16;161.40;;;26.87;;
10725;SDS011;5414;59.782;16.378;2024-03-02T00:58:42;71.80;;;21.10;;
10725;SDS011;5414;59.782;16.378;2024-03-02T01:01:09;87.67;;;22.47;;
10725;SDS011;5414;59.782;16.378;2024-03-02T01:03:35;121.97;;;23.77;;
10725;SDS011;5414;59.782;16.378;2024-03-02T01:06:02;94.50;;;24.53;;
10725;SDS011;5414;59.782;16.378;2024-03-02T01:08:28;244.67;;;30.37;;
10725;SDS011;5414;59.782;16.378;2024-03-02T01:10:54;212.53;;;29.93;;
10725;SDS011;5414;59.782;16.378;2024-03-02T01:13:23;260.73;;;32.93;;
10725;SDS011;5414;59.782;16.378;2024-03-02T01:15:51;112.93;;;24.93;;
10725;SDS011;5414;59.782;16.378;2024-03-02T01:18:17;72.60;;;22.93;;
10725;SDS011;5414;59.782;16.378;2024-03-02T01:20:43;140.40;;;26.57;;
10725;SDS011;5414;59.782;16.378;2024-03-02T01:23:09;151.57;;;25.17;;
10725;SDS011;5414;59.782;16.378;2024-03-02T01:25:35;212.93;;;29.83;;
10725;SDS011;5414;59.782;16.378;2024-03-02T01:28:01;62.47;;;21.70;;
10725;SDS011;5414;59.782;16.378;2024-03-02T01:30:27;136.37;;;26.30;;
10725;SDS011;5414;59.782;16.378;2024-03-02T01:32:53;183.00;;;27.27;;
10725;SDS011;5414;59.782;16.378;2024-03-02T01:35:19;155.57;;;27.17;;
10725;SDS011;5414;59.782;16.378;2024-03-02T01:37:45;326.57;;;36.23;;
10725;SDS011;5414;59.782;16.378;2024-03-02T01:40:11;235.30;;;31.27;;
10725;SDS011;5414;59.782;16.378;2024-03-02T01:42:37;214.93;;;31.30;;
10725;SDS011;5414;59.782;16.378;2024-03-02T01:45:04;197.03;;;31.00;;
10725;SDS011;5414;59.782;16.378;2024-03-02T01:47:31;98.77;;;26.63;;
10725;SDS011;5414;59.782;16.378;2024-03-02T01:49:57;178.03;;;30.60;;
10725;SDS011;5414;59.782;16.378;2024-03-02T01:52:24;312.57;;;36.90;;
10725;SDS011;5414;59.782;16.378;2024-03-02T01:54:50;334.10;;;37.17;;
10725;SDS011;5414;59.782;16.378;2024-03-02T01:57:16;193.30;;;30.30;;
10725;SDS011;5414;59.782;16.378;2024-03-02T01:59:42;93.67;;;27.97;;
10725;SDS011;5414;59.782;16.378;2024-03-02T02:02:08;143.00;;;28.83;;
10725;SDS011;5414;59.782;16.378;2024-03-02T02:04:34;138.53;;;28.20;;
10725;SDS011;5414;59.782;16.378;2024-03-02T02:07:00;247.10;;;34.30;;
10725;SDS011;5414;59.782;16.378;2024-03-02T02:09:26;154.60;;;29.80;;
10725;SDS011;5414;59.782;16.378;2024-03-02T02:11:52;87.57;;;26.33;;
10725;SDS011;5414;59.782;16.378;2024-03-02T02:14:18;202.83;;;32.43;;
10725;SDS011;5414;59.782;16.378;2024-03-02T02:16:44;54.13;;;23.87;;
10725;SDS011;5414;59.782;16.378;2024-03-02T02:19:12;201.10;;;32.20;;
10725;SDS011;5414;59.782;16.378;2024-03-02T02:21:38;96.90;;;27.63;;
10725;SDS011;5414;59.782;16.378;2024-03-02T02:24:07;286.73;;;35.87;;
10725;SDS011;5414;59.782;16.378;2024-03-02T02:26:33;103.60;;;27.50;;
10725;SDS011;5414;59.782;16.378;2024-03-02T02:28:59;141.63;;;29.00;;
10725;SDS011;5414;59.782;16.378;2024-03-02T02:31:25;109.97;;;29.50;;
10725;SDS011;5414;59.782;16.378;2024-03-02T02:33:53;167.13;;;31.17;;
10725;SDS011;5414;59.782;16.378;2024-03-02T02:36:19;123.17;;;30.40;;
10725;SDS011;5414;59.782;16.378;2024-03-02T02:38:45;130.77;;;29.67;;
10725;SDS011;5414;59.782;16.378;2024-03-02T02:41:13;212.67;;;35.03;;
10725;SDS011;5414;59.782;16.378;2024-03-02T02:43:39;241.40;;;35.50;;
10725;SDS011;5414;59.782;16.378;2024-03-02T02:46:05;70.70;;;27.77;;
10725;SDS011;5414;59.782;16.378;2024-03-02T02:48:31;127.13;;;28.23;;
10725;SDS011;5414;59.782;16.378;2024-03-02T02:50:57;135.37;;;29.90;;
10725;SDS011;5414;59.782;16.378;2024-03-02T02:53:23;108.73;;;28.50;;
10725;SDS011;5414;59.782;16.378;2024-03-02T02:55:49;199.33;;;35.73;;
10725;SDS011;5414;59.782;16.378;2024-03-02T02:58:15;66.37;;;26.70;;
10725;SDS011;5414;59.782;16.378;2024-03-02T03:00:41;194.73;;;33.83;;
10725;SDS011;5414;59.782;16.378;2024-03-02T03:03:07;270.93;;;38.63;;
10725;SDS011;5414;59.782;16.378;2024-03-02T03:05:33;272.93;;;36.50;;
10725;SDS011;5414;59.782;16.378;2024-03-02T03:07:59;88.37;;;27.07;;
10725;SDS011;5414;59.782;16.378;2024-03-02T03:10:25;135.03;;;30.70;;
10725;SDS011;5414;59.782;16.378;2024-03-02T03:12:52;74.10;;;29.37;;
10725;SDS011;5414;59.782;16.378;2024-03-02T03:15:21;72.20;;;27.40;;
10725;SDS011;5414;59.782;16.378;2024-03-02T03:17:47;99.57;;;29.37;;
10725;SDS011;5414;59.782;16.378;2024-03-02T03:20:13;101.20;;;28.47;;
10725;SDS011;5414;59.782;16.378;2024-03-02T03:22:40;52.30;;;25.63;;
10725;SDS011;5414;59.782;16.378;2024-03-02T03:25:07;63.27;;;26.77;;
10725;SDS011;5414;59.782;16.378;2024-03-02T03:27:33;263.10;;;35.20;;
10725;SDS011;5414;59.782;16.378;2024-03-02T03:30:01;53.00;;;24.93;;
10725;SDS011;5414;59.782;16.378;2024-03-02T03:32:28;156.40;;;30.63;;
10725;SDS011;5414;59.782;16.378;2024-03-02T03:34:54;61.03;;;25.87;;
10725;SDS011;5414;59.782;16.378;2024-03-02T03:37:21;56.13;;;25.13;;
10725;SDS011;5414;59.782;16.378;2024-03-02T03:39:47;128.60;;;25.70;;
10725;SDS011;5414;59.782;16.378;2024-03-02T03:42:13;78.57;;;25.07;;
10725;SDS011;5414;59.782;16.378;2024-03-02T03:44:39;60.13;;;24.77;;
10725;SDS011;5414;59.782;16.378;2024-03-02T03:47:06;113.00;;;26.40;;
10725;SDS011;5414;59.782;16.378;2024-03-02T03:49:32;87.17;;;27.13;;
10725;SDS011;5414;59.782;16.378;2024-03-02T03:51:59;49.33;;;24.13;;
10725;SDS011;5414;59.782;16.378;2024-03-02T03:54:25;97.73;;;26.93;;
10725;SDS011;5414;59.782;16.378;2024-03-02T03:56:51;152.17;;;28.03;;
10725;SDS011;5414;59.782;16.378;2024-03-02T03:59:18;77.07;;;25.20;;
10725;SDS011;5414;59.782;16.378;2024-03-02T04:01:44;56.60;;;23.77;;
10725;SDS011;5414;59.782;16.378;2024-03-02T04:04:10;127.93;;;27.13;;
10725;SDS011;5414;59.782;16.378;2024-03-02T04:06:36;87.93;;;25.37;;
10725;SDS011;5414;59.782;16.378;2024-03-02T04:09:02;75.30;;;24.73;;
10725;SDS011;5414;59.782;16.378;2024-03-02T04:11:29;76.67;;;24.33;;
10725;SDS011;5414;59.782;16.378;2024-03-02T04:13:55;297.03;;;34.27;;
10725;SDS011;5414;59.782;16.378;2024-03-02T04:16:21;139.57;;;29.83;;
10725;SDS011;5414;59.782;16.378;2024-03-02T04:18:47;151.00;;;28.93;;
10725;SDS011;5414;59.782;16.378;2024-03-02T04:21:14;76.73;;;26.20;;
10725;SDS011;5414;59.782;16.378;2024-03-02T04:23:40;47.97;;;23.70;;
10725;SDS011;5414;59.782;16.378;2024-03-02T04:26:06;131.97;;;29.37;;
10725;SDS011;5414;59.782;16.378;2024-03-02T04:28:32;96.63;;;24.53;;
10725;SDS011;5414;59.782;16.378;2024-03-02T04:30:58;127.83;;;28.27;;
10725;SDS011;5414;59.782;16.378;2024-03-02T04:33:25;54.50;;;24.97;;
10725;SDS011;5414;59.782;16.378;2024-03-02T04:35:51;93.87;;;26.43;;
10725;SDS011;5414;59.782;16.378;2024-03-02T04:38:17;84.10;;;25.83;;
10725;SDS011;5414;59.782;16.378;2024-03-02T04:40:43;54.57;;;25.07;;
10725;SDS011;5414;59.782;16.378;2024-03-02T04:43:09;75.50;;;26.37;;
10725;SDS011;5414;59.782;16.378;2024-03-02T04:45:37;58.83;;;26.07;;
10725;SDS011;5414;59.782;16.378;2024-03-02T04:48:04;45.77;;;24.23;;
10725;SDS011;5414;59.782;16.378;2024-03-02T04:50:30;57.67;;;26.43;;
10725;SDS011;5414;59.782;16.378;2024-03-02T04:52:56;199.40;;;31.10;;
10725;SDS011;5414;59.782;16.378;2024-03-02T04:55:22;94.03;;;26.87;;
10725;SDS011;5414;59.782;16.378;2024-03-02T04:57:55;138.37;;;28.63;;
10725;SDS011;5414;59.782;16.378;2024-03-02T05:00:21;55.70;;;25.97;;
10725;SDS011;5414;59.782;16.378;2024-03-02T05:02:48;226.47;;;34.50;;
10725;SDS011;5414;59.782;16.378;2024-03-02T05:05:14;99.93;;;26.10;;
10725;SDS011;5414;59.782;16.378;2024-03-02T05:07:40;133.03;;;30.07;;
10725;SDS011;5414;59.782;16.378;2024-03-02T05:10:08;55.07;;;26.73;;
10725;SDS011;5414;59.782;16.378;2024-03-02T05:12:35;66.27;;;27.07;;
10725;SDS011;5414;59.782;16.378;2024-03-02T05:15:10;97.60;;;29.53;;
10725;SDS011;5414;59.782;16.378;2024-03-02T05:17:37;90.77;;;29.47;;
10725;SDS011;5414;59.782;16.378;2024-03-02T05:20:03;57.87;;;28.47;;
10725;SDS011;5414;59.782;16.378;2024-03-02T05:22:29;53.67;;;27.07;;
10725;SDS011;5414;59.782;16.378;2024-03-02T05:24:55;62.93;;;28.07;;
10725;SDS011;5414;59.782;16.378;2024-03-02T05:27:21;63.83;;;28.23;;
10725;SDS011;5414;59.782;16.378;2024-03-02T05:29:49;65.80;;;29.80;;
10725;SDS011;5414;59.782;16.378;2024-03-02T05:32:15;71.47;;;29.87;;
10725;SDS011;5414;59.782;16.378;2024-03-02T05:34:41;60.30;;;29.20;;
10725;SDS011;5414;59.782;16.378;2024-03-02T05:37:06;58.97;;;29.30;;
10725;SDS011;5414;59.782;16.378;2024-03-02T05:39:32;57.93;;;30.03;;
10725;SDS011;5414;59.782;16.378;2024-03-02T05:41:58;57.67;;;30.77;;
10725;SDS011;5414;59.782;16.378;2024-03-02T05:44:24;65.13;;;31.77;;
10725;SDS011;5414;59.782;16.378;2024-03-02T05:46:50;60.53;;;31.47;;
10725;SDS011;5414;59.782;16.378;2024-03-02T05:49:17;53.97;;;30.83;;
10725;SDS011;5414;59.782;16.378;2024-03-02T05:51:44;63.63;;;32.27;;
10725;SDS011;5414;59.782;16.378;2024-03-02T05:54:10;66.63;;;31.77;;
10725;SDS011;5414;59.782;16.378;2024-03-02T05:56:37;56.67;;;30.60;;
10725;SDS011;5414;59.782;16.378;2024-03-02T05:59:03;56.90;;;30.70;;
10725;SDS011;5414;59.782;16.378;2024-03-02T06:01:41;52.57;;;30.37;;
10725;SDS011;5414;59.782;16.378;2024-03-02T06:04:08;50.10;;;29.50;;
10725;SDS011;5414;59.782;16.378;2024-03-02T06:06:34;52.80;;;32.60;;
10725;SDS011;5414;59.782;16.378;2024-03-02T06:09:01;53.13;;;31.13;;
10725;SDS011;5414;59.782;16.378;2024-03-02T06:11:30;54.37;;;30.27;;
10725;SDS011;5414;59.782;16.378;2024-03-02T06:13:56;53.37;;;31.60;;
10725;SDS011;5414;59.782;16.378;2024-03-02T06:16:22;53.67;;;31.43;;
10725;SDS011;5414;59.782;16.378;2024-03-02T06:18:48;49.30;;;30.93;;
10725;SDS011;5414;59.782;16.378;2024-03-02T06:21:14;53.70;;;31.73;;
10725;SDS011;5414;59.782;16.378;2024-03-02T06:23:40;49.80;;;30.80;;
10725;SDS011;5414;59.782;16.378;2024-03-02T06:26:06;51.60;;;30.10;;
10725;SDS011;5414;59.782;16.378;2024-03-02T06:28:32;51.80;;;31.63;;
10725;SDS011;5414;59.782;16.378;2024-03-02T06:30:58;51.70;;;29.30;;
10725;SDS011;5414;59.782;16.378;2024-03-02T06:33:24;59.20;;;32.10;;
10725;SDS011;5414;59.782;16.378;2024-03-02T06:35:51;52.63;;;31.90;;
10725;SDS011;5414;59.782;16.378;2024-03-02T06:38:17;60.80;;;33.70;;
10725;SDS011;5414;59.782;16.378;2024-03-02T06:40:43;56.07;;;30.97;;
10725;SDS011;5414;59.782;16.378;2024-03-02T06:43:09;71.80;;;34.43;;
10725;SDS011;5414;59.782;16.378;2024-03-02T06:45:35;66.63;;;35.17;;
10725;SDS011;5414;59.782;16.378;2024-03-02T06:48:01;74.43;;;33.97;;
10725;SDS011;5414;59.782;16.378;2024-03-02T06:50:27;67.63;;;34.73;;
10725;SDS011;5414;59.782;16.378;2024-03-02T06:52:55;71.53;;;35.83;;
10725;SDS011;5414;59.782;16.378;2024-03-02T06:55:21;59.33;;;32.67;;
10725;SDS011;5414;59.782;16.378;2024-03-02T06:57:47;61.93;;;34.60;;
10725;SDS011;5414;59.782;16.378;2024-03-02T07:00:14;60.83;;;32.80;;
10725;SDS011;5414;59.782;16.378;2024-03-02T07:02:42;60.60;;;33.10;;
10725;SDS011;5414;59.782;16.378;2024-03-02T07:05:09;71.20;;;34.40;;
10725;SDS011;5414;59.782;16.378;2024-03-02T07:07:36;69.20;;;35.17;;
10725;SDS011;5414;59.782;16.378;2024-03-02T07:10:03;77.67;;;33.60;;
10725;SDS011;5414;59.782;16.378;2024-03-02T07:12:29;97.50;;;34.03;;
10725;SDS011;5414;59.782;16.378;2024-03-02T07:14:56;77.60;;;35.40;;
10725;SDS011;5414;59.782;16.378;2024-03-02T07:17:28;66.10;;;33.87;;
10725;SDS011;5414;59.782;16.378;2024-03-02T07:19:54;57.43;;;32.40;;
10725;SDS011;5414;59.782;16.378;2024-03-02T07:22:20;71.07;;;34.40;;
10725;SDS011;5414;59.782;16.378;2024-03-02T07:24:46;68.20;;;34.40;;
10725;SDS011;5414;59.782;16.378;2024-03-02T07:27:13;76.90;;;34.50;;
10725;SDS011;5414;59.782;16.378;2024-03-02T07:29:39;63.27;;;33.33;;
10725;SDS011;5414;59.782;16.378;2024-03-02T07:32:06;83.30;;;35.73;;
10725;SDS011;5414;59.782;16.378;2024-03-02T07:34:32;63.10;;;33.83;;
10725;SDS011;5414;59.782;16.378;2024-03-02T07:36:58;72.33;;;35.17;;
10725;SDS011;5414;59.782;16.378;2024-03-02T07:39:24;70.47;;;33.53;;
10725;SDS011;5414;59.782;16.378;2024-03-02T07:41:52;66.83;;;33.80;;
10725;SDS011;5414;59.782;16.378;2024-03-02T07:44:18;60.03;;;33.23;;
10725;SDS011;5414;59.782;16.378;2024-03-02T07:46:44;61.53;;;33.00;;
10725;SDS011;5414;59.782;16.378;2024-03-02T07:49:17;57.97;;;34.03;;
10725;SDS011;5414;59.782;16.378;2024-03-02T07:51:44;54.93;;;33.17;;
10725;SDS011;5414;59.782;16.378;2024-03-02T07:54:10;58.70;;;33.70;;
10725;SDS011;5414;59.782;16.378;2024-03-02T07:56:37;79.30;;;34.30;;
10725;SDS011;5414;59.782;16.378;2024-03-02T07:59:03;62.20;;;32.73;;
10725;SDS011;5414;59.782;16.378;2024-03-02T08:01:30;55.63;;;32.93;;
10725;SDS011;5414;59.782;16.378;2024-03-02T08:03:57;62.27;;;35.67;;
10725;SDS011;5414;59.782;16.378;2024-03-02T08:06:24;61.87;;;33.63;;
10725;SDS011;5414;59.782;16.378;2024-03-02T08:08:52;57.10;;;34.33;;
10725;SDS011;5414;59.782;16.378;2024-03-02T08:11:19;65.40;;;34.43;;
10725;SDS011;5414;59.782;16.378;2024-03-02T08:13:45;61.23;;;34.37;;
10725;SDS011;5414;59.782;16.378;2024-03-02T08:16:11;57.93;;;32.37;;
10725;SDS011;5414;59.782;16.378;2024-03-02T08:18:37;58.47;;;34.63;;
10725;SDS011;5414;59.782;16.378;2024-03-02T08:21:03;54.27;;;33.70;;
10725;SDS011;5414;59.782;16.378;2024-03-02T08:23:31;51.33;;;32.53;;
10725;SDS011;5414;59.782;16.378;2024-03-02T08:25:57;54.40;;;34.07;;
10725;SDS011;5414;59.782;16.378;2024-03-02T08:28:23;51.33;;;32.37;;
10725;SDS011;5414;59.782;16.378;2024-03-02T08:30:49;56.97;;;33.63;;
10725;SDS011;5414;59.782;16.378;2024-03-02T08:33:15;55.10;;;32.20;;
10725;SDS011;5414;59.782;16.378;2024-03-02T08:35:41;51.27;;;32.80;;
10725;SDS011;5414;59.782;16.378;2024-03-02T08:38:07;52.97;;;33.17;;
10725;SDS011;5414;59.782;16.378;2024-03-02T08:40:33;50.10;;;30.57;;
10725;SDS011;5414;59.782;16.378;2024-03-02T08:42:59;47.27;;;31.77;;
10725;SDS011;5414;59.782;16.378;2024-03-02T08:45:25;48.63;;;32.60;;
10725;SDS011;5414;59.782;16.378;2024-03-02T08:47:51;49.80;;;31.33;;
10725;SDS011;5414;59.782;16.378;2024-03-02T08:50:18;51.70;;;32.30;;
10725;SDS011;5414;59.782;16.378;2024-03-02T08:52:44;48.27;;;30.97;;
10725;SDS011;5414;59.782;16.378;2024-03-02T08:55:10;45.60;;;30.57;;
10725;SDS011;5414;59.782;16.378;2024-03-02T08:57:36;47.03;;;30.37;;
10725;SDS011;5414;59.782;16.378;2024-03-02T09:00:02;46.17;;;31.07;;
10725;SDS011;5414;59.782;16.378;2024-03-02T09:02:30;52.80;;;30.83;;
10725;SDS011;5414;59.782;16.378;2024-03-02T09:04:56;51.43;;;31.33;;
10725;SDS011;5414;59.782;16.378;2024-03-02T09:07:22;46.60;;;30.70;;
10725;SDS011;5414;59.782;16.378;2024-03-02T09:09:48;48.77;;;29.53;;
10725;SDS011;5414;59.782;16.378;2024-03-02T09:12:14;46.17;;;30.30;;
10725;SDS011;5414;59.782;16.378;2024-03-02T09:14:40;42.53;;;29.10;;
10725;SDS011;5414;59.782;16.378;2024-03-02T09:17:07;44.63;;;30.13;;
10725;SDS011;5414;59.782;16.378;2024-03-02T09:19:35;42.87;;;29.33;;
10725;SDS011;5414;59.782;16.378;2024-03-02T09:22:01;48.17;;;31.13;;
10725;SDS011;5414;59.782;16.378;2024-03-02T09:24:30;42.00;;;29.43;;
10725;SDS011;5414;59.782;16.378;2024-03-02T09:26:56;46.80;;;30.53;;
10725;SDS011;5414;59.782;16.378;2024-03-02T09:29:22;47.53;;;30.67;;
10725;SDS011;5414;59.782;16.378;2024-03-02T09:31:48;46.73;;;30.07;;
10725;SDS011;5414;59.782;16.378;2024-03-02T09:34:16;43.03;;;29.60;;
10725;SDS011;5414;59.782;16.378;2024-03-02T09:36:42;41.97;;;29.13;;
10725;SDS011;5414;59.782;16.378;2024-03-02T09:39:08;49.27;;;30.27;;
10725;SDS011;5414;59.782;16.378;2024-03-02T09:41:35;46.90;;;29.67;;
10725;SDS011;5414;59.782;16.378;2024-03-02T09:44:02;49.37;;;30.97;;
10725;SDS011;5414;59.782;16.378;2024-03-02T09:46:28;42.33;;;28.53;;
10725;SDS011;5414;59.782;16.378;2024-03-02T09:48:54;46.97;;;30.10;;
10725;SDS011;5414;59.782;16.378;2024-03-02T09:51:21;43.57;;;30.43;;
10725;SDS011;5414;59.782;16.378;2024-03-02T09:53:48;40.93;;;28.83;;
10725;SDS011;5414;59.782;16.378;2024-03-02T09:56:14;45.47;;;32.47;;
10725;SDS011;5414;59.782;16.378;2024-03-02T09:58:45;47.47;;;31.80;;
10725;SDS011;5414;59.782;16.378;2024-03-02T10:01:11;48.50;;;31.60;;
10725;SDS011;5414;59.782;16.378;2024-03-02T10:03:38;50.87;;;31.43;;
10725;SDS011;5414;59.782;16.378;2024-03-02T10:06:23;49.03;;;31.37;;
10725;SDS011;5414;59.782;16.378;2024-03-02T10:08:49;46.70;;;30.67;;
10725;SDS011;5414;59.782;16.378;2024-03-02T10:11:25;43.60;;;30.20;;
10725;SDS011;5414;59.782;16.378;2024-03-02T10:14:11;46.17;;;30.20;;
10725;SDS011;5414;59.782;16.378;2024-03-02T10:16:38;40.43;;;28.70;;
10725;SDS011;5414;59.782;16.378;2024-03-02T10:21:40;41.77;;;29.77;;
10725;SDS011;5414;59.782;16.378;2024-03-02T10:24:07;42.83;;;28.20;;
10725;SDS011;5414;59.782;16.378;2024-03-02T10:26:33;44.03;;;28.17;;
10725;SDS011;5414;59.782;16.378;2024-03-02T10:28:59;41.30;;;27.93;;
10725;SDS011;5414;59.782;16.378;2024-03-02T10:31:26;40.93;;;27.60;;
10725;SDS011;5414;59.782;16.378;2024-03-02T10:33:56;43.27;;;28.97;;
10725;SDS011;5414;59.782;16.378;2024-03-02T10:36:23;39.47;;;27.23;;
10725;SDS011;5414;59.782;16.378;2024-03-02T10:38:50;39.83;;;27.43;;
10725;SDS011;5414;59.782;16.378;2024-03-02T10:41:20;42.93;;;27.63;;
10725;SDS011;5414;59.782;16.378;2024-03-02T10:43:49;40.07;;;27.53;;
10725;SDS011;5414;59.782;16.378;2024-03-02T10:46:16;43.80;;;28.23;;
10725;SDS011;5414;59.782;16.378;2024-03-02T10:48:46;39.70;;;28.17;;
10725;SDS011;5414;59.782;16.378;2024-03-02T10:51:12;39.07;;;27.67;;
10725;SDS011;5414;59.782;16.378;2024-03-02T10:53:39;39.50;;;28.20;;
10725;SDS011;5414;59.782;16.378;2024-03-02T10:56:05;39.70;;;27.00;;
10725;SDS011;5414;59.782;16.378;2024-03-02T10:58:33;39.57;;;27.60;;
10725;SDS011;5414;59.782;16.378;2024-03-02T11:01:02;41.27;;;27.27;;
10725;SDS011;5414;59.782;16.378;2024-03-02T11:03:33;45.27;;;28.13;;
10725;SDS011;5414;59.782;16.378;2024-03-02T11:05:59;38.97;;;27.00;;
10725;SDS011;5414;59.782;16.378;2024-03-02T11:08:26;42.10;;;27.53;;
10725;SDS011;5414;59.782;16.378;2024-03-02T11:10:57;37.53;;;25.97;;
10725;SDS011;5414;59.782;16.378;2024-03-02T11:13:27;38.63;;;26.77;;
10725;SDS011;5414;59.782;16.378;2024-03-02T11:15:59;36.57;;;25.37;;
10725;SDS011;5414;59.782;16.378;2024-03-02T11:18:25;35.53;;;25.67;;
10725;SDS011;5414;59.782;16.378;2024-03-02T11:20:52;44.27;;;25.70;;
10725;SDS011;5414;59.782;16.378;2024-03-02T11:23:19;36.30;;;25.80;;
10725;SDS011;5414;59.782;16.378;2024-03-02T11:26:19;35.63;;;23.87;;
10725;SDS011;5414;59.782;16.378;2024-03-02T11:28:44;38.37;;;24.93;;
10725;SDS011;5414;59.782;16.378;2024-03-02T11:31:11;34.10;;;24.13;;
10725;SDS011;5414;59.782;16.378;2024-03-02T11:33:37;37.77;;;26.27;;
10725;SDS011;5414;59.782;16.378;2024-03-02T11:36:03;36.67;;;25.57;;
10725;SDS011;5414;59.782;16.378;2024-03-02T11:38:30;38.47;;;25.07;;
10725;SDS011;5414;59.782;16.378;2024-03-02T11:40:59;38.03;;;24.43;;
10725;SDS011;5414;59.782;16.378;2024-03-02T11:43:27;37.13;;;25.73;;
10725;SDS011;5414;59.782;16.378;2024-03-02T11:45:57;38.57;;;24.47;;
10725;SDS011;5414;59.782;16.378;2024-03-02T11:48:24;36.27;;;24.23;;
10725;SDS011;5414;59.782;16.378;2024-03-02T11:50:51;32.97;;;24.57;;
10725;SDS011;5414;59.782;16.378;2024-03-02T11:53:17;33.03;;;24.10;;
10725;SDS011;5414;59.782;16.378;2024-03-02T11:55:45;32.87;;;24.67;;
10725;SDS011;5414;59.782;16.378;2024-03-02T11:58:11;30.53;;;23.30;;
10725;SDS011;5414;59.782;16.378;2024-03-02T12:00:38;31.50;;;21.57;;
10725;SDS011;5414;59.782;16.378;2024-03-02T12:03:08;29.37;;;22.17;;
10725;SDS011;5414;59.782;16.378;2024-03-02T12:05:35;31.43;;;22.83;;
10725;SDS011;5414;59.782;16.378;2024-03-02T12:08:05;36.57;;;22.77;;
10725;SDS011;5414;59.782;16.378;2024-03-02T12:10:34;34.87;;;24.60;;
10725;SDS011;5414;59.782;16.378;2024-03-02T12:15:27;33.83;;;23.47;;
10725;SDS011;5414;59.782;16.378;2024-03-02T12:17:54;34.37;;;23.17;;
10725;SDS011;5414;59.782;16.378;2024-03-02T12:20:20;34.40;;;24.20;;
10725;SDS011;5414;59.782;16.378;2024-03-02T12:22:46;37.03;;;24.07;;
10725;SDS011;5414;59.782;16.378;2024-03-02T12:25:12;35.63;;;23.63;;
10725;SDS011;5414;59.782;16.378;2024-03-02T12:27:39;33.13;;;23.17;;
10725;SDS011;5414;59.782;16.378;2024-03-02T12:30:06;32.37;;;23.40;;
10725;SDS011;5414;59.782;16.378;2024-03-02T12:32:35;34.13;;;22.90;;
10725;SDS011;5414;59.782;16.378;2024-03-02T12:35:03;31.73;;;23.70;;
10725;SDS011;5414;59.782;16.378;2024-03-02T12:37:31;35.03;;;24.43;;
10725;SDS011;5414;59.782;16.378;2024-03-02T12:39:57;31.47;;;23.77;;
10725;SDS011;5414;59.782;16.378;2024-03-02T12:42:23;32.17;;;23.43;;
10725;SDS011;5414;59.782;16.378;2024-03-02T12:44:53;31.17;;;23.63;;
10725;SDS011;5414;59.782;16.378;2024-03-02T12:47:20;36.83;;;23.17;;
10725;SDS011;5414;59.782;16.378;2024-03-02T12:49:46;35.30;;;23.53;;
10725;SDS011;5414;59.782;16.378;2024-03-02T12:52:12;31.47;;;22.60;;
10725;SDS011;5414;59.782;16.378;2024-03-02T12:54:38;32.97;;;23.27;;
10725;SDS011;5414;59.782;16.378;2024-03-02T12:57:05;35.63;;;22.40;;
10725;SDS011;5414;59.782;16.378;2024-03-02T12:59:31;32.90;;;23.20;;
10725;SDS011;5414;59.782;16.378;2024-03-02T13:01:58;33.50;;;23.80;;
10725;SDS011;5414;59.782;16.378;2024-03-02T13:04:26;33.37;;;23.77;;
10725;SDS011;5414;59.782;16.378;2024-03-02T13:06:53;34.33;;;23.83;;
10725;SDS011;5414;59.782;16.378;2024-03-02T13:09:23;31.47;;;22.70;;
10725;SDS011;5414;59.782;16.378;2024-03-02T13:11:49;37.17;;;22.83;;
10725;SDS011;5414;59.782;16.378;2024-03-02T13:14:15;31.30;;;23.10;;
10725;SDS011;5414;59.782;16.378;2024-03-02T13:16:41;28.80;;;23.33;;
10725;SDS011;5414;59.782;16.378;2024-03-02T13:19:08;30.43;;;22.63;;
10725;SDS011;5414;59.782;16.378;2024-03-02T13:21:34;32.03;;;22.93;;
10725;SDS011;5414;59.782;16.378;2024-03-02T13:24:00;30.13;;;22.97;;
10725;SDS011;5414;59.782;16.378;2024-03-02T13:26:27;32.57;;;23.07;;
10725;SDS011;5414;59.782;16.378;2024-03-02T13:28:53;30.90;;;23.30;;
10725;SDS011;5414;59.782;16.378;2024-03-02T13:31:19;30.80;;;23.03;;
10725;SDS011;5414;59.782;16.378;2024-03-02T13:33:46;31.00;;;22.63;;
10725;SDS011;5414;59.782;16.378;2024-03-02T13:36:12;33.73;;;23.50;;
10725;SDS011;5414;59.782;16.378;2024-03-02T13:38:39;31.37;;;23.77;;
10725;SDS011;5414;59.782;16.378;2024-03-02T13:41:05;33.27;;;23.30;;
10725;SDS011;5414;59.782;16.378;2024-03-02T13:43:31;29.93;;;22.27;;
10725;SDS011;5414;59.782;16.378;2024-03-02T13:45:58;32.93;;;25.13;;
10725;SDS011;5414;59.782;16.378;2024-03-02T13:48:24;36.37;;;24.10;;
10725;SDS011;5414;59.782;16.378;2024-03-02T13:50:53;28.43;;;21.87;;
10725;SDS011;5414;59.782;16.378;2024-03-02T13:53:19;32.47;;;23.63;;
10725;SDS011;5414;59.782;16.378;2024-03-02T13:55:45;30.87;;;23.70;;
10725;SDS011;5414;59.782;16.378;2024-03-02T13:58:11;32.13;;;23.73;;
10725;SDS011;5414;59.782;16.378;2024-03-02T14:00:38;30.73;;;23.47;;
10725;SDS011;5414;59.782;16.378;2024-03-02T14:03:06;34.17;;;24.43;;
10725;SDS011;5414;59.782;16.378;2024-03-02T14:05:32;33.13;;;25.60;;
10725;SDS011;5414;59.782;16.378;2024-03-02T14:07:58;34.13;;;24.33;;
10725;SDS011;5414;59.782;16.378;2024-03-02T14:10:27;37.27;;;25.43;;
10725;SDS011;5414;59.782;16.378;2024-03-02T14:12:54;35.50;;;24.40;;
10725;SDS011;5414;59.782;16.378;2024-03-02T14:15:20;33.73;;;25.23;;
10725;SDS011;5414;59.782;16.378;2024-03-02T14:17:46;36.87;;;25.90;;
10725;SDS011;5414;59.782;16.378;2024-03-02T14:20:12;34.93;;;26.97;;
10725;SDS011;5414;59.782;16.378;2024-03-02T14:22:40;35.60;;;25.30;;
10725;SDS011;5414;59.782;16.378;2024-03-02T14:25:06;38.37;;;26.73;;